createdAt,value
2018-06-19T00:00:03.023Z,97.80
2018-06-19T00:02:31.519Z,97.70
2018-06-19T00:05:00.007Z,97.70
2018-06-19T00:07:28.567Z,97.70
2018-06-19T00:09:57.047Z,97.70
2018-06-19T00:12:25.539Z,97.70
2018-06-19T00:14:53.988Z,97.70
2018-06-19T00:22:19.840Z,97.80
2018-06-19T00:24:48.320Z,97.70
2018-06-19T00:27:16.803Z,97.60
2018-06-19T00:32:13.461Z,97.70
2018-06-19T00:37:10.052Z,97.90
2018-06-19T00:39:38.506Z,97.90
2018-06-19T00:42:06.983Z,98.10
2018-06-19T00:44:35.447Z,98.10
2018-06-19T00:47:03.919Z,98.30
2018-06-19T00:49:32.401Z,98.40
2018-06-19T00:52:00.869Z,98.10
2018-06-19T00:54:29.331Z,98.00
2018-06-19T00:56:59.091Z,98.00
2018-06-19T00:59:27.697Z,98.00
2018-06-19T01:01:57.667Z,98.00
2018-06-19T01:04:26.160Z,97.90
2018-06-19T01:06:54.643Z,98.00
2018-06-19T01:09:23.111Z,98.40
2018-06-19T01:11:51.599Z,98.20
2018-06-19T01:14:20.056Z,98.20
2018-06-19T01:16:48.543Z,98.30
2018-06-19T01:19:16.991Z,98.40
2018-06-19T01:21:45.444Z,98.60
2018-06-19T01:24:13.911Z,98.50
2018-06-19T01:26:42.364Z,98.50
2018-06-19T01:29:10.843Z,98.70
2018-06-19T01:31:39.295Z,98.70
2018-06-19T01:34:07.792Z,98.70
2018-06-19T01:36:36.243Z,98.70
2018-06-19T01:39:07.855Z,98.80
2018-06-19T01:41:36.316Z,98.90
2018-06-19T01:44:04.775Z,99.00
2018-06-19T01:46:33.252Z,99.10
2018-06-19T01:49:01.719Z,99.30
2018-06-19T01:51:30.188Z,99.30
2018-06-19T01:53:58.644Z,99.40
2018-06-19T01:56:27.148Z,99.60
2018-06-19T01:58:55.603Z,99.60
2018-06-19T02:01:24.080Z,99.70
2018-06-19T02:03:52.611Z,99.80
2018-06-19T02:06:21.100Z,99.80
2018-06-19T02:08:49.547Z,99.80
2018-06-19T02:13:46.155Z,99.90
2018-06-19T02:16:14.627Z,99.90
2018-06-19T02:18:43.116Z,99.90
2018-06-19T02:21:11.560Z,99.90
2018-06-19T02:23:40.009Z,99.90
2018-06-19T02:26:08.485Z,99.90
2018-06-19T02:28:36.949Z,99.90
2018-06-19T02:31:05.453Z,99.90
2018-06-19T02:33:33.916Z,99.90
2018-06-19T02:36:02.405Z,99.90
2018-06-19T02:38:30.873Z,99.90
2018-06-19T02:40:59.365Z,99.90
2018-06-19T02:43:27.841Z,99.90
2018-06-19T02:45:56.318Z,99.90
2018-06-19T02:48:24.821Z,99.90
2018-06-19T02:50:53.376Z,99.90
2018-06-19T02:53:21.879Z,99.90
2018-06-19T02:55:50.356Z,99.90
2018-06-19T02:58:18.942Z,99.90
2018-06-19T03:00:47.430Z,99.90
2018-06-19T03:03:15.928Z,99.90
2018-06-19T03:05:44.409Z,99.90
2018-06-19T03:08:12.877Z,99.90
2018-06-19T03:10:41.372Z,99.90
2018-06-19T03:13:09.837Z,99.90
2018-06-19T03:15:38.340Z,99.90
2018-06-19T03:23:03.150Z,99.90
2018-06-19T03:25:31.648Z,99.90
2018-06-19T03:28:00.137Z,99.90
2018-06-19T03:30:28.874Z,99.90
2018-06-19T03:32:57.269Z,99.90
2018-06-19T03:35:25.740Z,99.90
2018-06-19T03:37:54.239Z,99.90
2018-06-19T03:40:22.708Z,99.90
2018-06-19T03:42:51.220Z,99.90
2018-06-19T03:45:19.732Z,99.90
2018-06-19T03:47:48.204Z,99.90
2018-06-19T03:55:12.989Z,99.90
2018-06-19T03:57:41.480Z,99.90
2018-06-19T04:00:09.960Z,99.90
2018-06-19T04:02:38.481Z,99.90
2018-06-19T04:05:06.977Z,99.90
2018-06-19T04:07:35.493Z,99.90
2018-06-19T04:10:04.168Z,99.90
2018-06-19T04:12:32.632Z,99.90
2018-06-19T04:15:01.129Z,99.90
2018-06-19T04:17:29.620Z,99.90
2018-06-19T04:19:58.968Z,99.90
2018-06-19T04:24:57.868Z,99.90
2018-06-19T04:27:26.788Z,99.90
2018-06-19T04:29:55.316Z,99.90
2018-06-19T04:32:23.824Z,99.90
2018-06-19T04:34:52.308Z,99.90
2018-06-19T04:37:20.851Z,99.90
2018-06-19T04:39:49.373Z,99.90
2018-06-19T04:44:46.872Z,99.90
2018-06-19T04:47:15.372Z,99.90
2018-06-19T04:49:43.869Z,99.90
2018-06-19T04:52:12.368Z,99.90
2018-06-19T04:54:40.852Z,99.90
2018-06-19T04:57:09.371Z,99.90
2018-06-19T04:59:37.896Z,99.90
2018-06-19T05:02:06.416Z,99.90
2018-06-19T05:04:34.917Z,99.90
2018-06-19T05:07:03.409Z,99.90
2018-06-19T05:09:31.924Z,99.90
2018-06-19T05:12:00.401Z,99.90
2018-06-19T05:16:57.051Z,99.90
2018-06-19T05:19:25.524Z,99.90
2018-06-19T05:21:54.037Z,99.90
2018-06-19T05:24:22.807Z,99.90
2018-06-19T05:26:51.315Z,99.90
2018-06-19T05:29:19.800Z,99.90
2018-06-19T05:31:48.301Z,99.90
2018-06-19T05:36:44.953Z,99.90
2018-06-19T05:41:41.597Z,99.90
2018-06-19T05:44:10.097Z,99.90
2018-06-19T05:49:07.046Z,99.90
2018-06-19T05:51:35.532Z,99.90
2018-06-19T05:54:04.076Z,99.90
2018-06-19T05:56:32.844Z,99.90
2018-06-19T05:59:01.325Z,99.90
2018-06-19T06:01:29.856Z,99.90
2018-06-19T06:03:58.327Z,99.90
2018-06-19T06:06:26.819Z,99.90
2018-06-19T06:08:55.307Z,99.90
2018-06-19T06:11:23.788Z,99.90
2018-06-19T06:13:52.968Z,99.90
2018-06-19T06:16:21.571Z,99.90
2018-06-19T06:18:50.041Z,99.90
2018-06-19T06:21:18.520Z,99.90
2018-06-19T06:23:47.023Z,99.90
2018-06-19T06:28:43.665Z,99.90
2018-06-19T06:31:12.176Z,99.90
2018-06-19T06:33:40.824Z,99.90
2018-06-19T06:36:09.311Z,99.90
2018-06-19T06:38:37.789Z,99.90
2018-06-19T06:41:06.283Z,99.90
2018-06-19T06:43:34.756Z,99.90
2018-06-19T06:46:03.280Z,99.90
2018-06-19T06:48:31.753Z,99.90
2018-06-19T06:51:00.257Z,99.90
2018-06-19T06:53:28.733Z,99.90
2018-06-19T06:55:57.237Z,99.90
2018-06-19T06:58:25.728Z,99.90
2018-06-19T07:00:54.200Z,99.90
2018-06-19T07:03:23.171Z,99.90
2018-06-19T07:05:52.320Z,99.90
2018-06-19T07:08:20.825Z,99.80
2018-06-19T07:10:49.350Z,99.90
2018-06-19T07:13:17.887Z,99.70
2018-06-19T07:18:14.604Z,99.80
2018-06-19T07:20:43.100Z,99.70
2018-06-19T07:23:11.656Z,99.60
2018-06-19T07:25:40.160Z,99.20
2018-06-19T07:28:08.708Z,99.00
2018-06-19T07:30:37.256Z,99.10
2018-06-19T07:35:33.929Z,99.20
2018-06-19T07:38:02.446Z,99.10
2018-06-19T07:40:30.924Z,98.80
2018-06-19T07:43:01.877Z,98.50
2018-06-19T07:45:30.348Z,99.00
2018-06-19T07:47:58.969Z,98.70
2018-06-19T07:50:27.593Z,98.20
2018-06-19T07:52:56.096Z,98.30
2018-06-19T07:55:24.585Z,97.10
2018-06-19T07:57:53.419Z,96.60
2018-06-19T08:02:50.552Z,96.50
2018-06-19T08:05:19.064Z,96.40
2018-06-19T08:07:47.557Z,96.60
2018-06-19T08:10:16.080Z,96.10
2018-06-19T08:12:44.815Z,95.20
2018-06-19T08:17:41.505Z,95.70
2018-06-19T08:20:10.363Z,95.00
2018-06-19T08:25:07.392Z,95.30
2018-06-19T08:27:35.918Z,95.30
2018-06-19T08:30:04.685Z,95.00
2018-06-19T08:32:33.224Z,94.60
2018-06-19T08:35:01.783Z,95.00
2018-06-19T08:37:30.351Z,94.70
2018-06-19T08:42:27.916Z,94.10
2018-06-19T08:44:56.399Z,94.30
2018-06-19T08:49:53.096Z,94.30
2018-06-19T08:52:21.599Z,94.00
2018-06-19T08:57:18.315Z,93.70
2018-06-19T08:59:46.836Z,93.30
2018-06-19T09:02:15.360Z,93.70
2018-06-19T09:04:43.932Z,93.40
2018-06-19T09:07:12.450Z,93.10
2018-06-19T09:09:40.948Z,92.80
2018-06-19T09:12:09.474Z,92.80
2018-06-19T09:14:37.964Z,92.70
2018-06-19T09:17:06.483Z,92.70
2018-06-19T09:19:34.959Z,93.00
2018-06-19T09:22:03.464Z,92.90
2018-06-19T09:24:32.041Z,92.50
2018-06-19T09:27:00.520Z,92.70
2018-06-19T09:29:29.035Z,92.40
2018-06-19T09:31:57.524Z,91.60
2018-06-19T09:34:26.275Z,91.40
2018-06-19T09:36:54.796Z,91.80
2018-06-19T09:39:23.297Z,90.90
2018-06-19T09:41:51.837Z,90.10
2018-06-19T09:46:48.497Z,90.20
2018-06-19T09:49:16.979Z,90.40
2018-06-19T09:51:45.581Z,90.60
2018-06-19T09:54:14.061Z,90.80
2018-06-19T09:56:42.661Z,90.60
2018-06-19T09:59:11.244Z,90.50
2018-06-19T10:04:07.880Z,89.80
2018-06-19T10:06:36.410Z,89.30
2018-06-19T10:09:07.232Z,89.60
2018-06-19T10:14:04.041Z,88.40
2018-06-19T10:16:32.620Z,87.40
2018-06-19T10:19:01.125Z,87.00
2018-06-19T10:21:29.605Z,87.70
2018-06-19T10:23:58.144Z,85.40
2018-06-19T10:26:26.688Z,86.70
2018-06-19T10:28:55.161Z,85.00
2018-06-19T10:31:23.689Z,84.70
2018-06-19T10:33:52.188Z,83.40
2018-06-19T10:36:20.688Z,83.40
2018-06-19T10:38:49.160Z,81.50
2018-06-19T10:41:17.681Z,80.50
2018-06-19T10:43:46.152Z,79.40
2018-06-19T10:46:14.692Z,79.60
2018-06-19T10:48:43.180Z,80.10
2018-06-19T10:51:11.657Z,79.60
2018-06-19T10:53:40.165Z,77.60
2018-06-19T10:56:08.632Z,79.10
2018-06-19T10:58:37.140Z,79.40
2018-06-19T11:01:05.637Z,79.00
2018-06-19T11:06:02.327Z,77.40
2018-06-19T11:08:30.852Z,78.90
2018-06-19T11:10:59.340Z,80.00
2018-06-19T11:13:27.844Z,80.80
2018-06-19T11:15:56.336Z,79.70
2018-06-19T11:20:52.984Z,80.30
2018-06-19T11:23:21.522Z,78.70
2018-06-19T11:25:50.046Z,78.40
2018-06-19T11:30:46.769Z,77.30
2018-06-19T11:33:15.257Z,77.10
2018-06-19T11:35:43.768Z,77.20
2018-06-19T11:40:40.524Z,77.60
2018-06-19T11:45:37.162Z,75.70
2018-06-19T11:48:05.785Z,76.30
2018-06-19T11:50:34.321Z,76.30
2018-06-19T11:53:02.832Z,75.60
2018-06-19T11:57:59.529Z,75.40
2018-06-19T12:00:28.052Z,76.00
2018-06-19T12:02:56.574Z,79.30
2018-06-19T12:05:25.072Z,77.60
2018-06-19T12:07:53.632Z,78.90
2018-06-19T12:10:22.112Z,77.70
2018-06-19T12:12:50.604Z,77.00
2018-06-19T12:15:19.084Z,77.90
2018-06-19T12:17:47.565Z,77.00
2018-06-19T12:20:16.069Z,76.00
2018-06-19T12:22:44.532Z,75.00
2018-06-19T12:25:13.088Z,74.80
2018-06-19T12:32:37.912Z,74.70
2018-06-19T12:35:06.425Z,73.50
2018-06-19T12:37:34.900Z,72.00
2018-06-19T12:40:03.428Z,72.20
2018-06-19T12:42:31.946Z,72.10
2018-06-19T12:45:00.429Z,72.50
2018-06-19T12:47:28.928Z,72.20
2018-06-19T12:50:40.141Z,72.00
2018-06-19T12:53:20.491Z,68.10
2018-06-19T12:56:01.132Z,67.10
2018-06-19T13:00:57.800Z,66.00
2018-06-19T13:03:37.464Z,66.50
2018-06-19T13:06:17.094Z,68.30
2018-06-19T13:08:45.601Z,67.90
2018-06-19T13:11:14.149Z,67.60
2018-06-19T13:16:27.785Z,72.10
2018-06-19T13:19:07.397Z,70.90
2018-06-19T13:21:35.929Z,68.90
2018-06-19T13:24:04.464Z,66.50
2018-06-19T13:26:32.993Z,63.80
2018-06-19T13:29:39.279Z,65.00
2018-06-19T13:32:07.804Z,62.70
2018-06-19T13:34:36.780Z,61.20
2018-06-19T13:37:05.745Z,58.00
2018-06-19T13:39:34.825Z,57.40
2018-06-19T13:42:15.200Z,57.00
2018-06-19T13:44:55.064Z,54.90
2018-06-19T13:47:23.556Z,55.50
2018-06-19T13:49:52.052Z,55.70
2018-06-19T13:52:20.545Z,55.50
2018-06-19T13:54:49.081Z,54.40
2018-06-19T13:57:35.102Z,53.30
2018-06-19T14:00:05.072Z,52.50
2018-06-19T14:02:33.587Z,53.50
2018-06-19T14:05:02.649Z,53.70
2018-06-19T14:07:33.425Z,53.40
2018-06-19T14:10:21.512Z,53.60
2018-06-19T14:15:38.248Z,55.10
2018-06-19T14:18:07.132Z,55.70
2018-06-19T14:23:04.117Z,55.30
2018-06-19T14:25:32.612Z,55.40
2018-06-19T14:28:01.086Z,56.10
2018-06-19T14:30:29.621Z,57.10
2018-06-19T14:32:58.188Z,56.70
2018-06-19T14:35:26.700Z,57.40
2018-06-19T14:40:23.396Z,57.30
2018-06-19T14:42:51.876Z,56.30
2018-06-19T14:45:20.396Z,56.30
2018-06-19T14:47:48.919Z,57.20
2018-06-19T14:52:45.569Z,55.90
2018-06-19T14:57:42.228Z,55.30
2018-06-19T15:00:11.472Z,55.50
2018-06-19T15:02:40.100Z,55.90
2018-06-19T15:10:22.451Z,56.70
2018-06-19T15:12:51.073Z,57.20
2018-06-19T15:15:19.553Z,57.20
2018-06-19T15:17:48.053Z,56.90
2018-06-19T15:20:16.541Z,57.70
2018-06-19T15:22:45.089Z,56.90
2018-06-19T15:25:13.556Z,57.10
2018-06-19T15:27:42.032Z,57.80
2018-06-19T15:30:10.569Z,58.20
2018-06-19T15:32:39.051Z,57.60
2018-06-19T15:35:07.604Z,58.10
2018-06-19T15:37:36.103Z,58.60
2018-06-19T15:40:04.757Z,58.50
2018-06-19T15:42:33.258Z,59.40
2018-06-19T15:45:01.787Z,60.80
2018-06-19T15:49:58.465Z,59.80
2018-06-19T15:52:26.956Z,60.70
2018-06-19T15:54:55.448Z,60.40
2018-06-19T15:57:24.014Z,62.00
2018-06-19T15:59:52.449Z,61.50
2018-06-19T16:02:20.977Z,61.10
2018-06-19T16:04:49.450Z,61.20
2018-06-19T16:07:17.949Z,61.40
2018-06-19T16:09:46.437Z,60.80
2018-06-19T16:12:14.895Z,61.50
2018-06-19T16:19:39.689Z,61.40
2018-06-19T16:22:08.172Z,60.60
2018-06-19T16:24:36.673Z,60.50
2018-06-19T16:29:33.332Z,60.90
2018-06-19T16:34:29.976Z,62.30
2018-06-19T16:36:58.460Z,62.60
2018-06-19T16:39:26.932Z,62.70
2018-06-19T16:41:55.433Z,63.20
2018-06-19T16:46:52.064Z,63.50
2018-06-19T16:49:20.523Z,64.50
2018-06-19T16:51:49.024Z,65.00
2018-06-19T16:54:17.505Z,64.80
2018-06-19T16:56:46.005Z,65.70
2018-06-19T16:59:14.484Z,64.70
2018-06-19T17:01:43.000Z,64.50
2018-06-19T17:04:11.464Z,65.00
2018-06-19T17:14:04.528Z,64.20
2018-06-19T17:16:33.073Z,64.60
2018-06-19T17:19:01.545Z,64.30
2018-06-19T17:21:30.071Z,64.90
2018-06-19T17:23:58.920Z,65.20
2018-06-19T17:26:27.412Z,65.40
2018-06-19T17:28:55.960Z,65.10
2018-06-19T17:31:24.433Z,65.50
2018-06-19T17:33:52.933Z,65.10
2018-06-19T17:38:49.579Z,65.80
2018-06-19T17:41:18.049Z,66.30
2018-06-19T17:43:46.540Z,66.70
2018-06-19T17:46:15.013Z,66.70
2018-06-19T17:48:43.485Z,66.90
2018-06-19T17:51:11.987Z,67.50
2018-06-19T17:53:40.452Z,68.00
2018-06-19T17:56:09.181Z,69.20
2018-06-19T17:58:37.688Z,69.30
2018-06-19T18:01:06.308Z,69.70
2018-06-19T18:03:34.791Z,70.70
2018-06-19T18:06:03.292Z,69.50
2018-06-19T18:10:59.920Z,70.20
2018-06-19T18:13:28.424Z,70.60
2018-06-19T18:15:56.896Z,71.50
2018-06-19T18:18:25.408Z,71.90
2018-06-19T18:20:53.885Z,72.50
2018-06-19T18:28:18.952Z,72.70
2018-06-19T18:30:47.412Z,73.10
2018-06-19T18:33:15.947Z,73.40
2018-06-19T18:35:44.401Z,74.20
2018-06-19T18:38:12.934Z,73.80
2018-06-19T18:40:41.481Z,74.40
2018-06-19T18:43:09.940Z,75.10
2018-06-19T18:45:38.517Z,75.90
2018-06-19T18:48:07.032Z,76.80
2018-06-19T18:50:35.528Z,77.50
2018-06-19T18:53:04.971Z,78.20
2018-06-19T18:55:33.456Z,78.70
2018-06-19T18:58:01.952Z,79.30
2018-06-19T19:00:30.457Z,79.70
2018-06-19T19:02:58.934Z,80.30
2018-06-19T19:05:27.437Z,80.80
2018-06-19T19:07:55.912Z,81.20
2018-06-19T19:10:29.690Z,81.50
2018-06-19T19:12:58.175Z,82.00
2018-06-19T19:15:32.200Z,82.10
2018-06-19T19:18:06.160Z,83.10
2018-06-19T19:23:02.832Z,83.80
2018-06-19T19:25:31.344Z,83.60
2018-06-19T19:28:05.143Z,83.80
2018-06-19T19:30:33.645Z,84.00
2018-06-19T19:33:02.136Z,84.70
2018-06-19T19:35:30.653Z,84.60
2018-06-19T19:38:04.497Z,85.40
2018-06-19T19:40:32.976Z,85.60
2018-06-19T19:43:01.479Z,86.30
2018-06-19T19:45:29.946Z,86.90
2018-06-19T19:48:03.756Z,86.80
2018-06-19T19:50:32.225Z,87.20
2018-06-19T19:53:00.740Z,87.10
2018-06-19T19:55:29.216Z,87.70
2018-06-19T19:58:03.173Z,88.00
2018-06-19T20:00:31.651Z,87.90
2018-06-19T20:03:00.145Z,88.30
2018-06-19T20:05:28.796Z,88.20
2018-06-19T20:07:57.321Z,88.90
2018-06-19T20:10:25.797Z,89.50
2018-06-19T20:12:54.296Z,89.30
2018-06-19T20:15:22.768Z,89.50
2018-06-19T20:17:51.273Z,89.50
2018-06-19T20:20:19.763Z,90.00
2018-06-19T20:22:48.249Z,90.10
2018-06-19T20:25:16.748Z,90.20
2018-06-19T20:27:45.208Z,90.40
2018-06-19T20:30:13.708Z,90.70
2018-06-19T20:32:42.184Z,90.60
2018-06-19T20:35:10.702Z,90.70
2018-06-19T20:37:39.184Z,90.80
2018-06-19T20:40:07.679Z,91.00
2018-06-19T20:42:36.461Z,91.20
2018-06-19T20:45:05.072Z,91.30
2018-06-19T20:47:33.593Z,91.50
2018-06-19T20:52:30.252Z,91.90
2018-06-19T20:54:58.719Z,92.30
2018-06-19T20:57:27.194Z,92.30
2018-06-19T20:59:55.684Z,92.30
2018-06-19T21:02:24.152Z,92.50
2018-06-19T21:04:52.634Z,92.70
2018-06-19T21:07:21.120Z,92.90
2018-06-19T21:09:49.616Z,92.90
2018-06-19T21:12:18.115Z,93.10
2018-06-19T21:17:14.748Z,93.50
2018-06-19T21:19:43.212Z,93.60
2018-06-19T21:22:11.712Z,93.80
2018-06-19T21:24:40.200Z,93.80
2018-06-19T21:32:05.041Z,94.30
2018-06-19T21:34:33.557Z,94.40
2018-06-19T21:37:02.073Z,94.50
2018-06-19T21:39:30.617Z,94.70
2018-06-19T21:41:59.205Z,94.90
2018-06-19T21:44:27.734Z,95.00
2018-06-19T21:46:56.457Z,95.10
2018-06-19T21:49:24.990Z,95.30
2018-06-19T21:51:53.558Z,95.30
2018-06-19T21:54:22.028Z,95.40
2018-06-19T21:56:50.524Z,95.40
2018-06-19T21:59:18.993Z,95.60
2018-06-19T22:01:47.521Z,95.70
2018-06-19T22:04:16.016Z,95.80
2018-06-19T22:09:12.740Z,95.80
2018-06-19T22:11:41.217Z,95.90
2018-06-19T22:14:09.715Z,96.10
2018-06-19T22:16:38.188Z,96.20
2018-06-19T22:19:06.685Z,96.30
2018-06-19T22:21:35.148Z,96.20
2018-06-19T22:24:03.629Z,96.40
2018-06-19T22:26:32.168Z,96.50
2018-06-19T22:29:00.608Z,96.60
2018-06-19T22:31:29.085Z,96.60
2018-06-19T22:33:57.645Z,96.80
2018-06-19T22:36:26.159Z,96.90
2018-06-19T22:38:54.624Z,97.10
2018-06-19T22:41:23.096Z,97.00
2018-06-19T22:43:51.585Z,97.40
2018-06-19T22:46:20.061Z,97.60
2018-06-19T22:48:48.607Z,97.70
2018-06-19T22:51:17.108Z,97.90
2018-06-19T22:53:45.664Z,98.00
2018-06-19T22:56:14.144Z,98.20
2018-06-19T22:58:42.629Z,98.40
2018-06-19T23:01:11.090Z,98.50
2018-06-19T23:08:35.980Z,98.70
2018-06-19T23:11:04.923Z,98.80
2018-06-19T23:13:33.408Z,98.90
2018-06-19T23:16:01.888Z,99.00
2018-06-19T23:18:30.363Z,99.20
2018-06-19T23:23:26.984Z,99.30
2018-06-19T23:25:55.489Z,99.50
2018-06-19T23:30:52.100Z,99.70
2018-06-19T23:33:20.585Z,99.60
2018-06-19T23:35:49.053Z,99.70
2018-06-19T23:38:17.552Z,99.70
2018-06-19T23:40:46.092Z,99.80
2018-06-19T23:43:14.580Z,99.80
2018-06-19T23:45:43.065Z,99.80
2018-06-19T23:48:11.573Z,99.80
2018-06-19T23:50:40.053Z,99.90
2018-06-19T23:55:36.672Z,99.90
2018-06-19T23:58:05.200Z,99.90
